createdAt,value
2024-03-13T00:01:07.980Z,8.70
2024-03-13T00:03:37.446Z,8.60
2024-03-13T00:06:05.175Z,9.50
2024-03-13T00:08:32.237Z,9.60
2024-03-13T00:10:59.328Z,8.87
2024-03-13T00:13:27.530Z,8.23
2024-03-13T00:15:54.345Z,8.13
2024-03-13T00:18:21.770Z,6.93
2024-03-13T00:20:48.617Z,6.17
2024-03-13T00:23:16.495Z,7.13
2024-03-13T00:25:44.620Z,5.50
2024-03-13T00:28:11.556Z,6.13
2024-03-13T00:30:38.777Z,5.80
2024-03-13T00:33:05.846Z,5.87
2024-03-13T00:35:32.839Z,5.20
2024-03-13T00:38:00.961Z,4.80
2024-03-13T00:40:27.889Z,5.60
2024-03-13T00:42:55.840Z,5.90
2024-03-13T00:45:23.316Z,4.33
2024-03-13T00:47:50.173Z,3.47
2024-03-13T00:50:17.293Z,5.07
2024-03-13T00:52:44.522Z,3.73
2024-03-13T00:55:12.285Z,3.63
2024-03-13T00:57:44.192Z,3.37
2024-03-13T01:00:13.205Z,3.60
2024-03-13T01:02:43.205Z,3.30
2024-03-13T01:05:11.092Z,3.60
2024-03-13T01:07:38.040Z,3.60
2024-03-13T01:10:05.436Z,3.83
2024-03-13T01:12:33.033Z,3.07
2024-03-13T01:15:00.540Z,3.53
2024-03-13T01:17:27.781Z,2.77
2024-03-13T01:19:54.671Z,3.03
2024-03-13T01:22:23.786Z,2.33
2024-03-13T01:24:50.706Z,2.60
2024-03-13T01:27:18.512Z,2.10
2024-03-13T01:29:47.542Z,2.57
2024-03-13T01:32:16.394Z,2.10
2024-03-13T01:34:43.200Z,2.00
2024-03-13T01:37:28.827Z,2.40
2024-03-13T01:39:55.740Z,2.07
2024-03-13T01:42:41.395Z,2.40
2024-03-13T01:45:28.827Z,2.10
2024-03-13T01:48:15.881Z,2.47
2024-03-13T01:51:02.932Z,2.20
2024-03-13T01:53:49.307Z,1.67
2024-03-13T01:56:28.863Z,3.30
2024-03-13T01:59:22.097Z,2.70
2024-03-13T02:02:08.434Z,3.40
2024-03-13T02:04:36.406Z,3.90
2024-03-13T02:07:04.746Z,4.13
2024-03-13T02:09:31.996Z,7.93
2024-03-13T02:11:58.907Z,6.40
2024-03-13T02:14:25.702Z,5.10
2024-03-13T02:16:53.816Z,4.13
2024-03-13T02:19:21.626Z,3.23
2024-03-13T02:21:49.182Z,2.10
2024-03-13T02:24:16.180Z,1.77
2024-03-13T02:26:43.000Z,2.83
2024-03-13T02:29:10.275Z,2.00
2024-03-13T02:31:37.119Z,1.97
2024-03-13T02:34:05.984Z,1.83
2024-03-13T02:36:32.907Z,2.77
2024-03-13T02:39:00.734Z,1.80
2024-03-13T02:41:27.728Z,2.30
2024-03-13T02:43:58.639Z,3.00
2024-03-13T02:46:26.115Z,2.47
2024-03-13T02:48:53.913Z,1.80
2024-03-13T02:51:21.440Z,1.93
2024-03-13T02:53:49.648Z,2.00
2024-03-13T02:56:16.743Z,2.07
2024-03-13T02:58:46.047Z,2.63
2024-03-13T03:01:13.550Z,1.80
2024-03-13T03:03:40.933Z,2.00
2024-03-13T03:06:08.247Z,2.60
2024-03-13T03:08:38.531Z,2.07
2024-03-13T03:11:05.418Z,2.00
2024-03-13T03:13:32.457Z,1.80
2024-03-13T03:16:00.969Z,2.20
2024-03-13T03:18:28.776Z,2.30
2024-03-13T03:20:55.526Z,1.77
2024-03-13T03:23:22.708Z,1.70
2024-03-13T03:25:49.513Z,1.57
2024-03-13T03:28:17.917Z,1.50
2024-03-13T03:30:47.987Z,2.10
2024-03-13T03:33:15.201Z,1.77
2024-03-13T03:35:42.443Z,1.80
2024-03-13T03:38:09.237Z,1.73
2024-03-13T03:40:36.707Z,1.77
2024-03-13T03:43:05.068Z,2.00
2024-03-13T03:45:31.950Z,2.10
2024-03-13T03:48:04.831Z,1.60
2024-03-13T03:50:38.408Z,1.60
2024-03-13T03:53:05.293Z,2.17
2024-03-13T03:55:32.073Z,1.83
2024-03-13T03:57:58.989Z,1.70
2024-03-13T04:00:25.786Z,1.67
2024-03-13T04:02:53.016Z,2.33
2024-03-13T04:05:21.322Z,2.37
2024-03-13T04:07:52.654Z,1.90
2024-03-13T04:10:21.405Z,1.60
2024-03-13T04:12:50.472Z,1.80
2024-03-13T04:15:22.620Z,2.17
2024-03-13T04:17:52.358Z,1.97
2024-03-13T04:20:22.041Z,2.20
2024-03-13T04:22:49.129Z,1.60
2024-03-13T04:25:16.117Z,1.70
2024-03-13T04:27:43.164Z,2.00
2024-03-13T04:30:10.172Z,1.60
2024-03-13T04:32:37.182Z,2.10
2024-03-13T04:35:04.921Z,1.70
2024-03-13T04:37:32.634Z,1.80
2024-03-13T04:40:01.224Z,2.07
2024-03-13T04:42:28.871Z,1.50
2024-03-13T04:44:57.266Z,2.23
2024-03-13T04:47:24.539Z,2.30
2024-03-13T04:49:51.756Z,2.23
2024-03-13T04:52:19.380Z,2.40
2024-03-13T04:54:46.280Z,2.27
2024-03-13T04:57:13.202Z,1.90
2024-03-13T04:59:40.118Z,2.77
2024-03-13T05:02:07.227Z,3.00
2024-03-13T05:04:37.750Z,1.80
2024-03-13T05:07:04.739Z,1.90
2024-03-13T05:09:31.557Z,2.13
2024-03-13T05:11:58.614Z,2.13
2024-03-13T05:14:25.668Z,2.77
2024-03-13T05:16:52.658Z,2.30
2024-03-13T05:19:20.378Z,2.30
2024-03-13T05:21:47.332Z,1.70
2024-03-13T05:24:16.970Z,2.43
2024-03-13T05:26:44.085Z,1.83
2024-03-13T05:29:11.300Z,2.20
2024-03-13T05:31:38.178Z,2.00
2024-03-13T05:34:06.199Z,1.70
2024-03-13T05:36:33.645Z,1.63
2024-03-13T05:39:00.725Z,2.10
2024-03-13T05:41:27.531Z,1.97
2024-03-13T05:43:54.516Z,2.07
2024-03-13T05:46:23.922Z,1.83
2024-03-13T05:48:51.091Z,1.63
2024-03-13T05:51:18.102Z,1.70
2024-03-13T05:53:45.952Z,1.60
2024-03-13T05:56:12.812Z,1.70
2024-03-13T05:58:42.552Z,3.00
2024-03-13T06:01:16.294Z,2.43
2024-03-13T06:03:43.295Z,1.70
2024-03-13T06:06:12.818Z,2.03
2024-03-13T06:08:39.709Z,2.93
2024-03-13T06:11:06.786Z,1.90
2024-03-13T06:13:33.868Z,2.10
2024-03-13T06:16:01.402Z,1.90
2024-03-13T06:18:28.346Z,2.30
2024-03-13T06:20:55.137Z,2.00
2024-03-13T06:23:21.950Z,2.13
2024-03-13T06:25:50.115Z,3.70
2024-03-13T06:28:35.540Z,2.00
2024-03-13T06:31:03.637Z,2.23
2024-03-13T06:33:32.351Z,2.13
2024-03-13T06:35:59.167Z,2.30
2024-03-13T06:38:25.987Z,2.30
2024-03-13T06:40:53.092Z,2.83
2024-03-13T06:43:19.903Z,2.20
2024-03-13T06:45:50.727Z,3.50
2024-03-13T06:48:17.540Z,6.47
2024-03-13T06:50:44.674Z,3.13
2024-03-13T06:53:11.982Z,3.13
2024-03-13T06:55:39.096Z,3.20
2024-03-13T06:58:06.285Z,2.63
2024-03-13T07:00:34.483Z,2.67
2024-03-13T07:03:04.812Z,3.93
2024-03-13T07:05:33.271Z,3.70
2024-03-13T07:08:00.094Z,3.97
2024-03-13T07:10:26.915Z,4.63
2024-03-13T07:12:53.751Z,3.77
2024-03-13T07:15:20.513Z,3.57
2024-03-13T07:17:47.718Z,3.87
2024-03-13T07:20:15.357Z,4.13
2024-03-13T07:22:42.454Z,3.57
2024-03-13T07:25:11.538Z,3.67
2024-03-13T07:27:38.573Z,3.53
2024-03-13T07:30:07.952Z,5.00
2024-03-13T07:32:35.779Z,4.30
2024-03-13T07:35:05.106Z,3.97
2024-03-13T07:37:33.206Z,4.13
2024-03-13T07:40:00.502Z,4.70
2024-03-13T07:42:27.441Z,4.60
2024-03-13T07:44:55.734Z,5.00
2024-03-13T07:47:23.081Z,5.00
2024-03-13T07:49:50.410Z,7.20
2024-03-13T07:52:17.772Z,5.40
2024-03-13T07:54:44.674Z,6.33
2024-03-13T07:57:13.481Z,5.73
2024-03-13T07:59:42.125Z,5.47
2024-03-13T08:02:10.051Z,6.23
2024-03-13T08:04:39.834Z,6.30
2024-03-13T09:07:40.783Z,6.50
2024-03-13T09:10:07.820Z,5.50
2024-03-13T09:12:35.738Z,6.33
2024-03-13T09:15:02.740Z,6.13
2024-03-13T09:17:29.682Z,5.87
2024-03-13T09:19:56.504Z,6.85
2024-03-13T09:22:23.576Z,5.97
2024-03-13T09:24:52.107Z,6.00
2024-03-13T09:27:19.166Z,6.53
2024-03-13T09:29:46.178Z,6.20
2024-03-13T09:32:13.059Z,6.60
2024-03-13T09:34:41.110Z,5.73
2024-03-13T09:37:09.408Z,6.27
2024-03-13T09:39:37.421Z,4.83
2024-03-13T09:42:16.443Z,5.40
2024-03-13T09:44:45.580Z,4.40
2024-03-13T09:47:14.770Z,5.40
2024-03-13T09:49:45.721Z,4.70
2024-03-13T09:52:14.169Z,5.00
2024-03-13T09:54:44.362Z,4.20
2024-03-13T09:57:12.446Z,5.03
2024-03-13T09:59:42.832Z,4.63
2024-03-13T10:02:17.569Z,4.80
2024-03-13T10:04:45.448Z,5.73
2024-03-13T10:07:19.965Z,5.20
2024-03-13T10:09:48.658Z,5.50
2024-03-13T10:12:26.177Z,4.83
2024-03-13T10:14:54.495Z,4.70
2024-03-13T10:17:25.126Z,4.60
2024-03-13T10:19:55.366Z,4.30
2024-03-13T10:22:22.906Z,4.87
2024-03-13T10:24:52.986Z,4.80
2024-03-13T10:27:21.743Z,5.30
2024-03-13T10:29:50.036Z,4.43
2024-03-13T10:32:18.993Z,3.90
2024-03-13T10:34:47.776Z,4.70
2024-03-13T10:37:15.641Z,4.60
2024-03-13T10:39:43.419Z,4.67
2024-03-13T10:42:10.949Z,4.27
2024-03-13T10:44:38.392Z,4.57
2024-03-13T10:47:07.874Z,3.80
2024-03-13T10:49:34.818Z,4.13
2024-03-13T10:52:07.338Z,3.90
2024-03-13T10:54:35.736Z,4.40
2024-03-13T10:57:02.835Z,4.67
2024-03-13T10:59:30.475Z,4.67
2024-03-13T11:01:57.853Z,3.67
2024-03-13T11:04:27.952Z,4.73
2024-03-13T11:06:55.014Z,4.00
2024-03-13T11:09:25.087Z,4.13
2024-03-13T11:11:54.424Z,5.60
2024-03-13T11:14:21.941Z,3.60
2024-03-13T11:16:56.605Z,4.87
2024-03-13T11:19:30.237Z,6.00
2024-03-13T11:22:04.666Z,5.27
2024-03-13T11:24:33.125Z,4.70
2024-03-13T11:27:18.662Z,5.00
2024-03-13T11:29:50.855Z,4.83
2024-03-13T11:32:19.200Z,4.50
2024-03-13T11:34:46.230Z,4.63
2024-03-13T11:37:13.915Z,5.07
2024-03-13T11:39:42.492Z,3.87
2024-03-13T11:42:15.678Z,3.97
2024-03-13T11:44:46.383Z,5.17
2024-03-13T11:47:13.787Z,4.87
2024-03-13T11:49:42.571Z,4.30
2024-03-13T11:52:12.398Z,4.00
2024-03-13T11:54:44.545Z,4.10
2024-03-13T11:57:14.124Z,4.60
2024-03-13T11:59:56.089Z,4.43
2024-03-13T12:02:32.893Z,3.70
2024-03-13T12:05:05.814Z,3.50
2024-03-13T12:07:44.527Z,3.90
2024-03-13T12:10:19.043Z,4.00
2024-03-13T12:12:46.678Z,4.30
2024-03-13T12:15:19.385Z,4.33
2024-03-13T12:17:51.903Z,4.00
2024-03-13T12:20:20.871Z,3.83
2024-03-13T12:22:48.877Z,6.03
2024-03-13T12:25:15.719Z,4.00
2024-03-13T12:27:53.430Z,4.30
2024-03-13T12:30:22.027Z,3.53
2024-03-13T12:32:55.023Z,4.23
2024-03-13T12:35:22.315Z,4.07
2024-03-13T12:37:54.226Z,4.40
2024-03-13T12:40:22.397Z,3.80
2024-03-13T12:42:49.777Z,3.90
2024-03-13T12:45:17.761Z,4.40
2024-03-13T12:47:47.841Z,3.93
2024-03-13T12:50:19.239Z,4.00
2024-03-13T12:52:55.977Z,3.70
2024-03-13T12:55:23.109Z,3.87
2024-03-13T12:57:50.437Z,3.93
2024-03-13T13:00:21.700Z,4.17
2024-03-13T13:02:54.608Z,5.07
2024-03-13T13:05:22.387Z,4.50
2024-03-13T13:07:53.254Z,5.53
2024-03-13T13:10:27.756Z,4.70
2024-03-13T13:12:56.389Z,4.60
2024-03-13T13:15:24.410Z,4.97
2024-03-13T13:17:51.693Z,3.90
2024-03-13T13:20:24.410Z,3.53
2024-03-13T13:22:53.154Z,3.47
2024-03-13T13:25:21.914Z,3.70
2024-03-13T13:27:51.769Z,6.70
2024-03-13T13:30:19.710Z,2.80
2024-03-13T13:32:47.402Z,2.90
2024-03-13T13:35:15.632Z,3.23
2024-03-13T13:37:43.405Z,2.70
2024-03-13T13:40:14.497Z,3.03
2024-03-13T13:42:41.813Z,2.70
2024-03-13T13:45:11.398Z,2.50
2024-03-13T13:47:45.043Z,2.83
2024-03-13T13:50:17.138Z,2.57
2024-03-13T13:52:44.694Z,2.63
2024-03-13T13:55:13.979Z,2.10
2024-03-13T13:57:50.309Z,2.40
2024-03-13T14:00:20.643Z,2.23
2024-03-13T14:02:48.448Z,2.30
2024-03-13T14:05:18.430Z,2.57
2024-03-13T14:07:46.185Z,2.33
2024-03-13T14:10:13.971Z,2.17
2024-03-13T14:12:42.207Z,2.27
2024-03-13T14:15:12.709Z,2.27
2024-03-13T14:17:40.564Z,2.63
2024-03-13T14:20:14.628Z,3.20
2024-03-13T14:22:42.150Z,2.70
2024-03-13T14:25:09.249Z,3.47
2024-03-13T14:27:39.227Z,3.30
2024-03-13T14:30:06.735Z,3.50
2024-03-13T14:32:33.676Z,3.87
2024-03-13T14:37:32.984Z,3.13
2024-03-13T14:40:04.549Z,3.43
2024-03-13T14:42:35.954Z,2.60
2024-03-13T14:45:07.539Z,2.40
2024-03-13T14:47:34.796Z,2.90
2024-03-13T14:50:02.029Z,3.23
2024-03-13T14:52:29.233Z,2.43
2024-03-13T14:54:56.212Z,2.63
2024-03-13T14:57:23.606Z,2.87
2024-03-13T14:59:51.307Z,2.93
2024-03-13T15:02:20.186Z,2.87
2024-03-13T15:04:47.562Z,2.13
2024-03-13T15:07:15.900Z,2.33
2024-03-13T15:09:43.764Z,3.83
2024-03-13T15:12:14.999Z,2.97
2024-03-13T15:14:43.907Z,2.30
2024-03-13T15:17:11.436Z,2.57
2024-03-13T15:19:43.420Z,2.43
2024-03-13T15:22:10.909Z,2.67
2024-03-13T15:24:39.958Z,3.30
2024-03-13T15:27:08.247Z,2.53
2024-03-13T15:29:35.549Z,2.47
2024-03-13T15:32:02.390Z,2.70
2024-03-13T15:34:31.879Z,2.53
2024-03-13T15:36:58.965Z,4.32
2024-03-13T15:39:28.225Z,2.70
2024-03-13T15:41:55.630Z,2.63
2024-03-13T15:44:23.401Z,2.83
2024-03-13T15:46:50.516Z,6.90
2024-03-13T15:49:17.560Z,2.73
2024-03-13T15:51:44.381Z,2.33
2024-03-13T15:54:12.195Z,2.13
2024-03-13T15:56:39.265Z,2.30
2024-03-13T15:59:06.269Z,2.50
2024-03-13T16:01:34.391Z,2.93
2024-03-13T16:04:01.541Z,2.83
2024-03-13T16:06:29.849Z,2.33
2024-03-13T16:09:05.241Z,4.23
2024-03-13T16:11:32.550Z,2.53
2024-03-13T16:13:59.809Z,2.40
2024-03-13T16:16:27.552Z,2.83
2024-03-13T16:18:55.021Z,2.40
2024-03-13T16:21:22.470Z,2.40
2024-03-13T16:23:50.052Z,2.90
2024-03-13T16:26:18.186Z,2.93
2024-03-13T16:28:45.914Z,2.50
2024-03-13T16:31:18.250Z,3.30
2024-03-13T16:33:45.504Z,2.87
2024-03-13T16:36:12.353Z,5.17
2024-03-13T16:38:39.300Z,2.60
2024-03-13T16:41:06.154Z,3.30
2024-03-13T16:43:34.170Z,4.77
2024-03-13T16:46:01.164Z,3.30
2024-03-13T16:48:28.224Z,2.70
2024-03-13T16:51:00.348Z,3.47
2024-03-13T16:53:27.364Z,4.23
2024-03-13T16:55:54.556Z,3.23
2024-03-13T16:58:21.564Z,3.70
2024-03-13T17:00:48.749Z,2.67
2024-03-13T17:03:15.596Z,3.13
2024-03-13T17:05:42.571Z,4.07
2024-03-13T17:08:09.814Z,2.80
2024-03-13T17:10:36.792Z,5.10
2024-03-13T17:13:05.403Z,3.13
2024-03-13T17:15:32.479Z,3.93
2024-03-13T17:18:00.500Z,2.80
2024-03-13T17:20:28.450Z,3.00
2024-03-13T17:22:55.378Z,3.53
2024-03-13T17:25:24.853Z,2.73
2024-03-13T17:27:53.583Z,3.00
2024-03-13T17:30:21.875Z,2.73
2024-03-13T17:32:49.079Z,2.40
2024-03-13T17:35:16.394Z,2.67
2024-03-13T17:37:43.863Z,3.10
2024-03-13T17:40:15.209Z,2.73
2024-03-13T17:42:44.128Z,4.93
2024-03-13T17:45:12.688Z,2.70
2024-03-13T17:47:40.197Z,2.57
2024-03-13T17:50:10.494Z,3.83
2024-03-13T17:52:38.090Z,2.77
2024-03-13T17:55:07.303Z,3.20
2024-03-13T17:57:34.955Z,3.90
2024-03-13T18:00:02.853Z,3.60
2024-03-13T18:02:30.094Z,3.37
2024-03-13T18:04:56.921Z,3.80
2024-03-13T18:07:28.739Z,2.77
2024-03-13T18:09:56.531Z,3.30
2024-03-13T18:12:24.588Z,4.13
2024-03-13T18:14:54.078Z,3.80
2024-03-13T18:17:21.632Z,3.90
2024-03-13T18:19:49.269Z,6.43
2024-03-13T18:22:19.361Z,4.60
2024-03-13T18:24:46.525Z,5.10
2024-03-13T18:27:13.565Z,5.23
2024-03-13T18:29:43.250Z,6.40
2024-03-13T18:32:10.351Z,4.80
2024-03-13T18:34:39.469Z,6.33
2024-03-13T18:37:06.524Z,7.13
2024-03-13T18:39:33.493Z,5.00
2024-03-13T18:42:00.529Z,4.90
2024-03-13T18:44:27.885Z,5.33
2024-03-13T18:46:54.867Z,10.43
2024-03-13T18:49:21.681Z,4.77
2024-03-13T18:51:48.847Z,6.40
2024-03-13T18:54:16.219Z,6.63
2024-03-13T18:56:43.477Z,5.30
2024-03-13T18:59:11.554Z,5.40
2024-03-13T19:01:38.773Z,5.60
2024-03-13T19:04:05.792Z,8.87
2024-03-13T19:06:34.105Z,6.00
2024-03-13T19:09:01.846Z,7.80
2024-03-13T19:11:29.971Z,6.50
2024-03-13T19:13:57.107Z,6.47
2024-03-13T19:16:24.426Z,8.53
2024-03-13T19:18:54.141Z,9.10
2024-03-13T19:21:22.042Z,7.00
2024-03-13T19:23:49.168Z,7.90
2024-03-13T19:26:16.189Z,9.70
2024-03-13T19:28:43.149Z,7.63
2024-03-13T19:31:17.628Z,8.10
2024-03-13T19:33:48.029Z,8.30
2024-03-13T19:36:15.216Z,7.80
2024-03-13T19:38:42.517Z,8.23
2024-03-13T19:41:09.606Z,7.73
2024-03-13T19:43:38.207Z,10.53
2024-03-13T19:46:09.839Z,9.00
2024-03-13T19:48:37.285Z,8.20
2024-03-13T19:51:06.916Z,8.20
2024-03-13T19:53:36.387Z,7.60
2024-03-13T19:56:03.384Z,7.83
2024-03-13T19:58:30.195Z,7.97
2024-03-13T20:00:57.107Z,7.23
2024-03-13T20:03:25.130Z,6.70
2024-03-13T20:05:52.137Z,7.80
2024-03-13T20:08:19.021Z,8.67
2024-03-13T20:10:45.980Z,8.40
2024-03-13T20:13:13.009Z,7.53
2024-03-13T20:15:40.006Z,7.63
2024-03-13T20:18:07.194Z,7.57
2024-03-13T20:20:37.555Z,9.47
2024-03-13T20:23:06.832Z,7.80
2024-03-13T20:25:33.776Z,7.60
2024-03-13T20:28:00.819Z,8.10
2024-03-13T20:30:27.864Z,7.73
2024-03-13T20:32:56.804Z,7.50
2024-03-13T20:35:24.857Z,7.40
2024-03-13T20:37:51.832Z,7.80
2024-03-13T20:40:19.017Z,9.43
2024-03-13T20:42:45.877Z,8.43
2024-03-13T20:45:13.264Z,6.67
2024-03-13T20:47:40.448Z,6.77
2024-03-13T20:50:10.500Z,6.33
2024-03-13T20:52:39.320Z,6.90
2024-03-13T20:55:09.162Z,7.60
2024-03-13T20:57:38.618Z,7.17
2024-03-13T21:00:12.348Z,7.07
2024-03-13T21:02:41.175Z,8.80
2024-03-13T21:05:08.765Z,8.23
2024-03-13T21:07:36.258Z,9.27
2024-03-13T21:10:04.855Z,10.43
2024-03-13T21:12:32.257Z,7.03
2024-03-13T21:15:01.145Z,7.53
2024-03-13T21:17:30.473Z,8.23
2024-03-13T21:20:01.191Z,7.90
2024-03-13T21:22:30.106Z,7.30
2024-03-13T21:24:57.332Z,7.13
2024-03-13T21:27:24.248Z,6.97
2024-03-13T21:29:51.147Z,7.63
2024-03-13T21:32:18.669Z,8.67
2024-03-13T21:34:45.647Z,7.90
2024-03-13T21:37:12.558Z,7.23
2024-03-13T21:39:39.473Z,7.23
2024-03-13T21:42:06.493Z,7.90
2024-03-13T21:44:36.996Z,8.17
2024-03-13T21:47:04.335Z,9.00
2024-03-13T21:49:33.517Z,9.50
2024-03-13T21:52:00.890Z,9.03
2024-03-13T21:54:27.951Z,9.70
2024-03-13T21:56:55.032Z,10.23
2024-03-13T21:59:21.882Z,8.97
2024-03-13T22:01:48.678Z,9.70
2024-03-13T22:04:15.587Z,10.13
2024-03-13T22:06:42.536Z,10.40
2024-03-13T22:09:11.547Z,12.30
2024-03-13T22:11:39.541Z,12.00
2024-03-13T22:14:06.652Z,12.60
2024-03-13T22:16:33.566Z,11.00
2024-03-13T22:19:00.837Z,10.60
2024-03-13T22:21:28.781Z,10.23
2024-03-13T22:23:55.898Z,10.30
2024-03-13T22:26:23.799Z,11.10
2024-03-13T22:28:50.662Z,9.50
2024-03-13T22:31:17.494Z,9.50
2024-03-13T22:33:44.461Z,9.60
2024-03-13T22:36:16.180Z,10.30
2024-03-13T22:38:43.347Z,13.10
2024-03-13T22:41:10.215Z,10.63
2024-03-13T22:43:37.057Z,10.57
2024-03-13T22:46:06.713Z,11.97
2024-03-13T22:48:34.400Z,10.00
2024-03-13T22:51:01.443Z,11.63
2024-03-13T22:53:28.351Z,9.77
2024-03-13T22:55:56.122Z,11.27
2024-03-13T22:58:22.875Z,11.63
2024-03-13T23:00:58.974Z,10.30
2024-03-13T23:03:26.664Z,13.57
2024-03-13T23:05:53.611Z,13.50
2024-03-13T23:08:20.571Z,12.00
2024-03-13T23:10:48.304Z,11.37
2024-03-13T23:13:15.093Z,10.27
2024-03-13T23:15:41.965Z,9.77
2024-03-13T23:18:09.099Z,9.13
2024-03-13T23:20:38.954Z,9.50
2024-03-13T23:23:09.162Z,9.57
2024-03-13T23:25:36.777Z,9.13
2024-03-13T23:28:07.161Z,9.77
2024-03-13T23:30:34.191Z,9.00
2024-03-13T23:33:01.771Z,11.33
2024-03-13T23:35:28.845Z,9.63
2024-03-13T23:37:55.683Z,8.60
2024-03-13T23:40:22.724Z,9.57
2024-03-13T23:42:52.108Z,9.40
2024-03-13T23:45:18.990Z,9.43
2024-03-13T23:47:46.393Z,9.70
2024-03-13T23:50:14.113Z,9.33
2024-03-13T23:52:41.247Z,9.47
2024-03-13T23:55:08.243Z,10.27
2024-03-13T23:57:35.356Z,10.67
